To NAV CANADA Home Page Login to a new session Search on AWWS site Feedback and Comments Disclaimer Vers la page française équivalente Tips FAQ What's new on the site To the Forecasts and Observations / NOTAM section To "File a Flight Plan" website Publications and other links Update of the User's profile FIC Telephone Numbers My Weather Data Folder Route Weather Data Regional Weather Data Local Weather Data To the Forecasts and Observations / NOTAM section
Request Generated 08/22/2017 at 03:27:08 UTC . Weather information available at that time is displayed.

METAR/TAF

ST. ANTHONY/NL    (show WxCam)

METAR CYAY 220300Z AUTO 07002KT 9SM BKN011 13/12 A2975 RMK SLP078=
METAR CYAY 220200Z AUTO 26013KT 9SM CLR 16/13 A2971 RMK SLP064
DENSITY ALT 400FT=
METAR CYAY 220100Z AUTO 24013KT 9SM CLR 16/13 A2971 RMK SLP064
DENSITY ALT 400FT=

TAF AMD CYAY 220320Z 2203/2214 VRB03KT P6SM SCT010 TEMPO 2203/2204
BKN010
FM220400 VRB03KT P6SM SCT010 BKN030 TEMPO 2204/2207 5SM -RA BR
SCT006 OVC010
FM220700 10012G22KT 3SM -RA BR OVC006 TEMPO 2207/2213 6SM -RA BR
SCT006 OVC010
FM221300 12012KT 2SM -DZ BR OVC004
RMK FCST BASED ON AUTO OBS. NXT FCST BY 220800Z=
Your time UTC time
Weather data provided by Environment Canada and NAV CANADA